Time;durP1;ratioP1;P1;durP2;ratioP2;P2;SDS_P1;SDS_P2;PMS_P1;PMS_P2;Temp;Humidity;BMP_temperature;BMP_pressure;BME280_temperature;BME280_humidity;BME280_pressure;Samples;Min_cycle;Max_cycle;Signal;HPM_P1;HPM_P2
2022/03/06 00:01:34;;;;;;;55.58;37.22;;;-2.70;99.90;;;;;;4991820;28;20252;-76
2022/03/06 00:04:02;;;;;;;59.83;38.92;;;-2.80;99.90;;;;;;5001278;28;20045;-75
2022/03/06 00:06:28;;;;;;;57.47;37.53;;;-2.80;99.90;;;;;;5002930;28;20038;-76
2022/03/06 00:08:55;;;;;;;49.85;34.95;;;-2.90;99.90;;;;;;4994806;28;20053;-75
2022/03/06 00:11:22;;;;;;;60.72;37.47;;;-2.90;99.90;;;;;;4990006;28;20066;-75
2022/03/06 00:13:49;;;;;;;56.10;37.08;;;-3.00;99.90;;;;;;4994112;28;20128;-75
2022/03/06 00:16:15;;;;;;;65.47;38.58;;;-3.10;99.90;;;;;;5023820;28;20117;-75
2022/03/06 00:18:42;;;;;;;60.38;38.20;;;-3.00;99.90;;;;;;5025041;28;20582;-75
2022/03/06 00:21:12;;;;;;;63.45;38.22;;;-3.00;99.90;;;;;;4993532;28;20137;-75
2022/03/06 00:23:38;;;;;;;64.40;39.53;;;-3.10;99.90;;;;;;4976752;28;20115;-75
2022/03/06 00:26:07;;;;;;;60.85;38.95;;;-3.10;99.90;;;;;;4993943;28;20069;-75
2022/03/06 00:28:34;;;;;;;54.22;37.28;;;-3.10;99.90;;;;;;4993178;28;20053;-75
2022/03/06 00:31:01;;;;;;;55.20;36.63;;;-3.20;99.90;;;;;;4990887;28;20053;-75
2022/03/06 00:33:28;;;;;;;54.30;36.55;;;-3.10;99.90;;;;;;4992136;28;20504;-75
2022/03/06 00:35:55;;;;;;;58.50;36.63;;;-3.20;99.90;;;;;;4994237;28;20737;-75
2022/03/06 00:38:22;;;;;;;59.42;38.17;;;-3.20;99.90;;;;;;4991184;28;20104;-75
2022/03/06 00:40:48;;;;;;;62.05;39.10;;;-3.20;99.90;;;;;;4993141;28;20312;-74
2022/03/06 00:43:15;;;;;;;57.33;35.72;;;-3.20;99.90;;;;;;4993394;28;20216;-75
2022/03/06 00:45:42;;;;;;;60.95;37.47;;;-3.20;99.90;;;;;;4991895;28;20267;-75
2022/03/06 00:48:09;;;;;;;59.15;36.75;;;-3.30;99.90;;;;;;4992871;28;20492;-74
2022/03/06 00:50:37;;;;;;;61.45;37.42;;;-3.40;99.90;;;;;;4993451;28;20048;-74
2022/03/06 00:53:05;;;;;;;54.70;36.30;;;-3.30;99.90;;;;;;5013753;28;20251;-74
2022/03/06 00:55:32;;;;;;;60.85;34.17;;;-3.30;99.90;;;;;;5013628;28;20107;-74
2022/03/06 00:58:05;;;;;;;54.42;35.00;;;-3.30;99.90;;;;;;4994758;28;20064;-74
2022/03/06 01:00:39;;;;;;;57.92;35.33;;;-3.30;99.90;;;;;;5001622;28;20134;-74
2022/03/06 01:03:09;;;;;;;48.50;32.03;;;-3.30;99.90;;;;;;5024912;28;20135;-74
2022/03/06 01:05:37;;;;;;;54.45;34.05;;;-3.40;99.90;;;;;;4992886;28;20045;-74
2022/03/06 01:08:05;;;;;;;50.70;31.35;;;-3.40;99.90;;;;;;5030833;23;20041;-76
2022/03/06 01:10:33;;;;;;;48.03;30.80;;;-3.40;99.90;;;;;;4994013;28;20041;-76
2022/03/06 01:13:01;;;;;;;53.20;32.15;;;-3.50;99.90;;;;;;5022009;28;20049;-77
2022/03/06 01:15:28;;;;;;;51.00;32.15;;;-3.50;99.90;;;;;;5001152;28;20501;-76
2022/03/06 01:17:56;;;;;;;50.67;32.40;;;-3.50;99.90;;;;;;5018690;28;20107;-76
2022/03/06 01:20:24;;;;;;;47.20;30.27;;;-3.30;99.90;;;;;;4997140;28;20136;-77
2022/03/06 01:22:52;;;;;;;48.30;30.90;;;-3.50;99.90;;;;;;5005684;28;20525;-76
2022/03/06 01:25:19;;;;;;;49.28;30.45;;;-3.40;99.90;;;;;;5037911;28;20049;-77
2022/03/06 01:27:46;;;;;;;46.42;29.20;;;-3.40;99.90;;;;;;5003667;28;20070;-76
2022/03/06 01:30:21;;;;;;;43.95;29.63;;;-3.50;99.90;;;;;;5005476;28;20099;-76
2022/03/06 01:32:48;;;;;;;53.72;30.63;;;-3.60;99.90;;;;;;5022643;28;20313;-77
2022/03/06 01:35:16;;;;;;;45.10;29.58;;;-3.40;99.90;;;;;;5004353;28;20060;-76
2022/03/06 01:37:43;;;;;;;45.22;28.70;;;-3.30;99.90;;;;;;4989953;28;20130;-75
2022/03/06 01:40:12;;;;;;;49.75;29.17;;;-3.50;99.90;;;;;;5002652;28;20037;-77
2022/03/06 01:42:43;;;;;;;45.85;28.00;;;-3.60;99.90;;;;;;4987624;28;20095;-77
2022/03/06 01:45:12;;;;;;;47.30;28.25;;;-3.70;99.90;;;;;;5003663;28;20053;-77
2022/03/06 01:47:41;;;;;;;46.15;29.10;;;-3.50;99.90;;;;;;5019046;28;20349;-77
2022/03/06 01:50:19;;;;;;;42.25;28.33;;;-3.50;99.90;;;;;;5003163;28;20053;-76
2022/03/06 01:52:47;;;;;;;45.78;27.80;;;-3.50;99.90;;;;;;5003701;28;20053;-76
2022/03/06 01:55:17;;;;;;;38.90;25.80;;;-3.40;99.90;;;;;;5003528;28;20045;-77
2022/03/06 01:57:45;;;;;;;41.67;26.60;;;-3.20;99.90;;;;;;5027637;28;20230;-77
2022/03/06 02:00:17;;;;;;;44.45;26.40;;;-3.10;99.90;;;;;;5021767;28;20056;-77
2022/03/06 02:02:44;;;;;;;43.58;26.67;;;-3.20;99.90;;;;;;5039716;28;20041;-76
2022/03/06 02:05:11;;;;;;;41.88;26.02;;;-3.20;99.90;;;;;;5037283;28;20675;-77
2022/03/06 02:07:38;;;;;;;43.33;27.38;;;-3.30;99.90;;;;;;5041694;28;20572;-76
2022/03/06 02:10:07;;;;;;;43.50;26.45;;;-3.30;99.90;;;;;;5005079;28;20322;-76
2022/03/06 02:12:34;;;;;;;45.72;27.48;;;-3.40;99.90;;;;;;5038068;28;20057;-77
2022/03/06 02:15:05;;;;;;;43.67;26.92;;;-3.60;99.90;;;;;;5002257;28;20466;-76
2022/03/06 02:17:32;;;;;;;46.30;27.83;;;-3.60;99.90;;;;;;5014778;28;20057;-76
2022/03/06 02:20:24;;;;;;;48.38;28.80;;;-3.40;99.90;;;;;;5010906;28;20041;-75
2022/03/06 02:22:56;;;;;;;45.75;27.05;;;-3.50;99.90;;;;;;5024687;28;20103;-76
2022/03/06 02:25:24;;;;;;;43.83;26.92;;;-3.20;99.90;;;;;;5008377;28;20358;-79
2022/03/06 02:27:53;;;;;;;44.63;26.58;;;-3.10;99.90;;;;;;5025933;28;20072;-76
2022/03/06 02:30:22;;;;;;;45.83;26.60;;;-3.30;99.90;;;;;;5025295;28;20083;-76
2022/03/06 02:32:51;;;;;;;45.40;27.48;;;-3.40;99.90;;;;;;5025459;28;20075;-76
2022/03/06 02:35:19;;;;;;;39.72;27.20;;;-3.50;99.90;;;;;;5023203;28;20473;-77
2022/03/06 02:37:46;;;;;;;41.20;27.25;;;-3.60;99.90;;;;;;5044661;28;20053;-76
2022/03/06 02:40:15;;;;;;;44.50;29.85;;;-3.70;99.90;;;;;;5013864;28;20045;-76
2022/03/06 02:42:45;;;;;;;45.63;29.75;;;-3.60;99.90;;;;;;5002439;28;20045;-76
2022/03/06 02:45:14;;;;;;;43.05;26.88;;;-3.50;99.90;;;;;;5011911;28;20500;-76
2022/03/06 02:47:43;;;;;;;47.53;28.10;;;-3.70;99.90;;;;;;5008789;28;20168;-76
2022/03/06 02:50:15;;;;;;;50.53;29.13;;;-3.90;99.90;;;;;;5042673;28;20045;-76
2022/03/06 02:52:43;;;;;;;46.28;27.92;;;-3.80;99.90;;;;;;5025908;28;20056;-75
2022/03/06 02:55:12;;;;;;;49.45;29.52;;;-3.80;99.90;;;;;;5025284;28;20049;-76
2022/03/06 02:57:40;;;;;;;41.33;26.65;;;-3.70;99.90;;;;;;5008833;28;20516;-76
2022/03/06 03:00:10;;;;;;;44.75;28.77;;;-3.80;99.90;;;;;;5024261;28;20187;-76
2022/03/06 03:02:38;;;;;;;45.80;28.17;;;-3.90;99.90;;;;;;5024708;28;20045;-76
2022/03/06 03:05:07;;;;;;;50.80;29.80;;;-3.90;99.90;;;;;;5021991;28;20052;-76
2022/03/06 03:07:33;;;;;;;47.40;28.15;;;-3.90;99.90;;;;;;5062326;28;20508;-76
2022/03/06 03:10:00;;;;;;;39.92;26.27;;;-4.00;99.90;;;;;;5062187;28;20516;-75
2022/03/06 03:12:27;;;;;;;44.83;28.20;;;-4.00;99.90;;;;;;5046771;28;20049;-76
2022/03/06 03:14:54;;;;;;;43.80;27.63;;;-4.00;99.90;;;;;;5024359;28;20056;-76
2022/03/06 03:17:21;;;;;;;45.45;29.08;;;-4.10;99.90;;;;;;5023743;28;20037;-77
2022/03/06 03:19:47;;;;;;;47.05;28.90;;;-4.10;99.90;;;;;;5024467;28;20049;-76
2022/03/06 03:22:14;;;;;;;47.63;29.70;;;-4.00;99.90;;;;;;5006937;28;20051;-76
2022/03/06 03:24:41;;;;;;;50.38;31.25;;;-4.10;99.90;;;;;;5008835;28;20044;-76
2022/03/06 03:27:08;;;;;;;48.28;29.27;;;-4.20;99.90;;;;;;5024141;28;20560;-75
2022/03/06 03:29:35;;;;;;;48.47;30.48;;;-4.20;99.90;;;;;;5007481;28;20148;-76
2022/03/06 03:32:01;;;;;;;45.88;30.17;;;-4.20;99.90;;;;;;5023506;28;20075;-76
2022/03/06 03:34:28;;;;;;;45.28;29.08;;;-4.30;99.90;;;;;;5032959;28;20045;-76
2022/03/06 03:36:55;;;;;;;50.55;30.38;;;-4.30;99.90;;;;;;5028518;28;20064;-76
2022/03/06 03:39:22;;;;;;;46.67;29.33;;;-4.10;99.90;;;;;;5024245;28;20061;-76
2022/03/06 03:41:49;;;;;;;51.05;29.92;;;-4.10;99.90;;;;;;5023273;28;20045;-75
2022/03/06 03:44:16;;;;;;;50.65;30.35;;;-4.10;99.90;;;;;;5024199;28;20061;-75
2022/03/06 03:46:43;;;;;;;50.72;30.63;;;-4.10;99.90;;;;;;5008299;28;20407;-76
2022/03/06 03:49:11;;;;;;;51.55;31.83;;;-4.10;99.90;;;;;;5024670;28;20057;-76
2022/03/06 03:51:38;;;;;;;50.25;30.30;;;-4.10;99.90;;;;;;5006638;28;20056;-76
2022/03/06 03:54:05;;;;;;;49.58;31.42;;;-4.00;99.90;;;;;;5024408;28;20049;-76
2022/03/06 03:56:31;;;;;;;49.08;30.15;;;-3.80;99.90;;;;;;5040722;28;20049;-77
2022/03/06 03:58:58;;;;;;;48.38;31.13;;;-3.70;99.90;;;;;;5024128;28;20370;-76
2022/03/06 04:01:25;;;;;;;46.00;29.63;;;-3.80;99.90;;;;;;5022867;28;20049;-76
2022/03/06 04:03:52;;;;;;;48.17;29.85;;;-3.70;99.90;;;;;;5029440;28;20050;-76
2022/03/06 04:06:19;;;;;;;40.90;28.02;;;-3.70;99.90;;;;;;5029073;28;20049;-77
2022/03/06 04:08:46;;;;;;;47.13;29.63;;;-3.60;99.90;;;;;;5025239;28;20049;-79
2022/03/06 04:11:13;;;;;;;47.47;29.45;;;-3.70;99.90;;;;;;5024355;28;20516;-79
2022/03/06 04:13:39;;;;;;;39.28;26.92;;;-3.70;99.90;;;;;;5008448;28;20115;-76
2022/03/06 04:16:07;;;;;;;45.83;29.77;;;-3.60;99.90;;;;;;5007132;28;20291;-76
2022/03/06 04:18:34;;;;;;;45.78;30.15;;;-3.50;99.90;;;;;;5025192;28;20105;-79
2022/03/06 04:21:01;;;;;;;45.15;30.17;;;-3.50;99.90;;;;;;5008791;28;20083;-79
2022/03/06 04:23:28;;;;;;;43.92;29.38;;;-3.50;99.90;;;;;;5024552;28;20064;-76
2022/03/06 04:25:54;;;;;;;47.33;30.88;;;-3.40;99.90;;;;;;5022952;28;20123;-76
2022/03/06 04:28:21;;;;;;;48.45;30.75;;;-3.40;99.90;;;;;;5007292;28;20037;-76
2022/03/06 04:30:48;;;;;;;45.03;28.83;;;-3.40;99.90;;;;;;5022513;28;20149;-78
2022/03/06 04:33:15;;;;;;;54.20;32.25;;;-3.40;99.90;;;;;;5017142;28;20084;-77
2022/03/06 04:35:42;;;;;;;62.80;37.00;;;-3.20;99.90;;;;;;5039230;28;20463;-78
2022/03/06 04:38:09;;;;;;;50.88;30.58;;;-3.20;99.90;;;;;;5062791;28;20071;-78
2022/03/06 04:40:36;;;;;;;85.80;45.95;;;-3.30;99.90;;;;;;5009551;28;20076;-78
2022/03/06 04:43:03;;;;;;;199.50;90.43;;;-3.20;99.90;;;;;;5025342;28;20063;-78
2022/03/06 04:45:30;;;;;;;97.85;53.28;;;-3.20;99.90;;;;;;5007494;28;20119;-78
2022/03/06 04:47:57;;;;;;;114.18;56.45;;;-3.20;99.90;;;;;;5025475;28;20550;-78
2022/03/06 04:50:24;;;;;;;60.45;37.03;;;-3.20;99.90;;;;;;5024204;28;20091;-79
2022/03/06 04:52:52;;;;;;;60.13;36.42;;;-3.30;99.90;;;;;;5042834;28;20110;-79
2022/03/06 04:55:19;;;;;;;61.95;35.95;;;-3.20;99.90;;;;;;5024598;28;20408;-79
2022/03/06 04:57:46;;;;;;;70.80;39.53;;;-3.20;99.90;;;;;;5024788;28;20110;-79
2022/03/06 05:00:15;;;;;;;54.45;34.45;;;-3.20;99.90;;;;;;5024064;28;20048;-79
2022/03/06 05:02:42;;;;;;;50.55;32.33;;;-3.00;99.90;;;;;;5008001;28;20041;-79
2022/03/06 05:05:10;;;;;;;57.90;34.10;;;-3.00;99.90;;;;;;5048537;28;20118;-78
2022/03/06 05:07:37;;;;;;;52.38;33.38;;;-3.00;99.90;;;;;;5024892;28;20123;-79
2022/03/06 05:10:11;;;;;;;49.97;32.28;;;-3.00;99.90;;;;;;5023012;28;20065;-78
2022/03/06 05:12:40;;;;;;;47.75;31.77;;;-3.00;99.90;;;;;;5042463;28;20511;-79
2022/03/06 05:15:09;;;;;;;46.15;32.55;;;-3.00;99.90;;;;;;5024968;28;20068;-78
2022/03/06 05:17:37;;;;;;;52.25;32.92;;;-3.00;99.90;;;;;;5042897;28;20408;-79
2022/03/06 05:20:05;;;;;;;48.67;32.15;;;-2.90;99.90;;;;;;5023526;28;20571;-79
2022/03/06 05:22:32;;;;;;;53.75;32.25;;;-2.90;99.90;;;;;;5004397;28;20054;-79
2022/03/06 05:24:59;;;;;;;47.53;32.22;;;-2.90;99.90;;;;;;5004886;28;20136;-79
2022/03/06 05:27:26;;;;;;;53.65;35.45;;;-2.90;99.90;;;;;;5003501;28;20095;-78
2022/03/06 05:29:53;;;;;;;50.30;32.30;;;-2.90;99.90;;;;;;5005742;28;20064;-79
2022/03/06 05:32:20;;;;;;;43.08;30.52;;;-2.80;99.90;;;;;;5005986;28;20504;-79
2022/03/06 05:34:47;;;;;;;44.33;30.42;;;-2.50;99.90;;;;;;5032210;28;20049;-79
2022/03/06 05:37:14;;;;;;;46.47;30.45;;;-2.30;99.90;;;;;;5010086;28;20330;-79
2022/03/06 05:39:41;;;;;;;42.92;30.48;;;-2.20;99.90;;;;;;5024704;28;20294;-79
2022/03/06 05:42:08;;;;;;;49.92;32.00;;;-2.30;99.90;;;;;;5023157;28;20400;-79
2022/03/06 05:44:35;;;;;;;42.25;31.42;;;-2.40;99.90;;;;;;5022522;28;20349;-79
2022/03/06 05:47:02;;;;;;;48.13;33.03;;;-2.50;99.90;;;;;;5022985;28;20338;-79
2022/03/06 05:49:29;;;;;;;40.53;31.20;;;-2.50;99.90;;;;;;5007704;28;20572;-79
2022/03/06 05:51:56;;;;;;;39.78;29.90;;;-2.30;99.90;;;;;;5022220;28;20045;-79
2022/03/06 05:54:22;;;;;;;46.30;30.52;;;-2.40;99.90;;;;;;5027762;28;20079;-79
2022/03/06 05:56:49;;;;;;;41.92;29.73;;;-2.30;99.90;;;;;;5027020;28;20151;-79
2022/03/06 05:59:16;;;;;;;45.30;32.80;;;-2.10;99.90;;;;;;5027186;28;20119;-78
2022/03/06 06:01:43;;;;;;;40.40;30.13;;;-2.10;99.90;;;;;;5043351;28;20484;-78
2022/03/06 06:04:12;;;;;;;40.15;30.35;;;-2.00;99.90;;;;;;5017581;28;20164;-79
2022/03/06 06:06:39;;;;;;;44.53;30.65;;;-1.90;99.90;;;;;;5006951;28;20050;-79
2022/03/06 06:09:06;;;;;;;40.75;31.42;;;-1.90;99.90;;;;;;5025683;28;20061;-79
2022/03/06 06:11:33;;;;;;;40.35;31.20;;;-1.80;99.90;;;;;;5025617;28;20049;-79
2022/03/06 06:14:00;;;;;;;38.53;31.45;;;-1.90;99.90;;;;;;5022853;28;20059;-79
2022/03/06 06:16:27;;;;;;;46.50;34.70;;;-2.00;99.90;;;;;;5027913;28;20509;-79
2022/03/06 06:18:54;;;;;;;51.13;35.33;;;-2.20;99.90;;;;;;5048340;28;20102;-79
2022/03/06 06:21:20;;;;;;;42.45;34.75;;;-2.30;99.90;;;;;;5007901;28;20217;-79
2022/03/06 06:23:48;;;;;;;47.85;36.20;;;-2.30;99.90;;;;;;5024531;28;20156;-79
2022/03/06 06:26:15;;;;;;;46.05;36.55;;;-2.20;99.90;;;;;;5023231;28;20045;-79
2022/03/06 06:28:42;;;;;;;44.42;36.05;;;-2.20;99.90;;;;;;5006258;28;20509;-79
2022/03/06 06:31:08;;;;;;;46.10;36.08;;;-2.20;99.90;;;;;;5025820;28;20052;-79
2022/03/06 06:33:36;;;;;;;46.25;34.53;;;-2.10;99.90;;;;;;5029178;28;20330;-79
2022/03/06 06:36:03;;;;;;;47.67;35.10;;;-2.10;99.90;;;;;;5043885;28;20516;-79
2022/03/06 06:38:30;;;;;;;48.85;34.80;;;-2.20;99.90;;;;;;5036125;28;20582;-79
2022/03/06 06:40:57;;;;;;;40.40;33.75;;;-2.10;99.90;;;;;;5009776;28;20542;-78
2022/03/06 06:43:24;;;;;;;42.10;35.72;;;-2.20;99.90;;;;;;5026819;28;20122;-79
2022/03/06 06:45:51;;;;;;;44.95;34.42;;;-2.00;99.90;;;;;;5025701;28;20068;-79
2022/03/06 06:48:18;;;;;;;43.78;35.00;;;-1.80;99.90;;;;;;5025571;28;20079;-79
2022/03/06 06:50:45;;;;;;;44.90;34.50;;;-1.70;99.90;;;;;;5009273;28;20053;-79
2022/03/06 06:53:12;;;;;;;40.78;32.75;;;-1.70;99.90;;;;;;5028325;28;20497;-79
2022/03/06 06:55:39;;;;;;;43.60;33.53;;;-1.60;99.90;;;;;;5009932;28;20123;-78
2022/03/06 06:58:06;;;;;;;43.50;34.35;;;-1.50;99.90;;;;;;5025365;28;20048;-79
2022/03/06 07:00:34;;;;;;;43.78;34.20;;;-1.30;99.90;;;;;;5024873;28;20060;-79
2022/03/06 07:03:01;;;;;;;46.03;33.72;;;-1.30;99.90;;;;;;5006646;28;20551;-79
2022/03/06 07:05:28;;;;;;;40.67;34.35;;;-1.20;99.90;;;;;;5049303;28;20040;-79
2022/03/06 07:07:55;;;;;;;43.72;33.25;;;-1.10;99.90;;;;;;5026341;28;20052;-79
2022/03/06 07:10:22;;;;;;;50.03;36.20;;;-1.20;99.90;;;;;;5042085;28;20053;-79
2022/03/06 07:12:55;;;;;;;44.80;36.03;;;-1.20;99.90;;;;;;5027046;28;20060;-79
2022/03/06 07:15:28;;;;;;;41.67;34.22;;;-1.20;99.90;;;;;;5000650;28;20378;-79
2022/03/06 07:17:59;;;;;;;55.30;40.50;;;-1.10;99.90;;;;;;5022913;28;20056;-79
2022/03/06 07:20:27;;;;;;;66.72;44.50;;;-1.00;99.90;;;;;;5025936;28;20045;-79
2022/03/06 07:22:54;;;;;;;54.92;40.15;;;-0.80;99.90;;;;;;5050182;28;20049;-79
2022/03/06 07:25:21;;;;;;;49.70;39.42;;;-0.80;99.90;;;;;;5026829;28;20072;-79
2022/03/06 07:27:48;;;;;;;54.05;42.65;;;-0.80;99.90;;;;;;5010687;28;20208;-79
2022/03/06 07:30:15;;;;;;;48.60;37.30;;;-0.70;99.90;;;;;;5042728;28;20057;-79
2022/03/06 07:32:43;;;;;;;52.30;39.13;;;-0.60;99.90;;;;;;5019291;28;20095;-78
2022/03/06 07:35:11;;;;;;;47.58;38.42;;;-0.40;99.90;;;;;;5059063;28;20045;-77
2022/03/06 07:37:38;;;;;;;54.22;40.15;;;-0.30;99.90;;;;;;5062525;28;20118;-78
2022/03/06 07:40:06;;;;;;;51.70;41.42;;;-0.20;99.90;;;;;;5049890;28;20040;-78
2022/03/06 07:42:34;;;;;;;45.92;38.70;;;-0.10;99.90;;;;;;5028990;28;20440;-79
2022/03/06 07:45:01;;;;;;;48.13;40.33;;;-0.20;99.90;;;;;;5046707;28;20045;-79
2022/03/06 07:47:28;;;;;;;49.40;41.80;;;-0.10;99.90;;;;;;5046091;28;20118;-79
2022/03/06 07:49:55;;;;;;;44.25;39.15;;;0.00;99.90;;;;;;5027120;28;20041;-79
2022/03/06 07:52:22;;;;;;;44.75;39.95;;;0.10;99.90;;;;;;5012223;28;20080;-79
2022/03/06 07:54:49;;;;;;;46.15;40.38;;;0.20;99.90;;;;;;5028511;28;20052;-79
2022/03/06 07:57:16;;;;;;;61.05;42.63;;;0.40;99.90;;;;;;5043189;28;20071;-79
2022/03/06 07:59:42;;;;;;;50.80;45.17;;;0.60;99.90;;;;;;5060032;28;20079;-78
2022/03/06 08:02:09;;;;;;;51.35;44.13;;;0.80;99.90;;;;;;5041497;28;20521;-78
2022/03/06 08:04:36;;;;;;;50.05;42.28;;;0.90;99.90;;;;;;5067059;28;20056;-78
2022/03/06 08:07:05;;;;;;;58.10;51.10;;;1.00;99.90;;;;;;5036208;28;20048;-79
2022/03/06 08:09:31;;;;;;;57.15;50.00;;;1.00;99.90;;;;;;5025733;28;20048;-79
2022/03/06 08:12:00;;;;;;;56.67;48.63;;;1.10;99.90;;;;;;5024562;28;20288;-79
2022/03/06 08:14:27;;;;;;;54.38;46.53;;;1.30;99.90;;;;;;5025285;28;20045;-79
2022/03/06 08:16:59;;;;;;;47.08;42.67;;;1.40;99.90;;;;;;5024815;28;20400;-79
2022/03/06 08:19:26;;;;;;;46.70;42.38;;;1.40;99.90;;;;;;5010010;28;20409;-79
2022/03/06 08:21:53;;;;;;;48.00;43.60;;;1.70;99.90;;;;;;5005461;28;20053;-79
2022/03/06 08:24:21;;;;;;;50.75;45.90;;;2.00;99.90;;;;;;5006078;28;20037;-79
2022/03/06 08:26:48;;;;;;;63.13;55.97;;;2.10;99.90;;;;;;5005277;28;20132;-79
2022/03/06 08:29:15;;;;;;;52.30;46.95;;;2.20;99.90;;;;;;5024883;28;20123;-79
2022/03/06 08:31:42;;;;;;;46.92;42.83;;;2.40;99.90;;;;;;5022522;28;20740;-79
2022/03/06 08:34:09;;;;;;;48.90;44.80;;;2.40;99.90;;;;;;5007859;28;20224;-79
2022/03/06 08:36:36;;;;;;;50.50;46.00;;;2.40;99.90;;;;;;5021621;28;20175;-79
2022/03/06 08:39:03;;;;;;;48.70;44.63;;;2.50;99.90;;;;;;5005534;28;20049;-80
2022/03/06 08:41:30;;;;;;;50.28;45.95;;;2.50;99.90;;;;;;5004901;28;20512;-78
2022/03/06 08:43:56;;;;;;;50.92;46.65;;;2.50;99.90;;;;;;5025329;28;20507;-79
2022/03/06 08:46:23;;;;;;;50.35;46.08;;;2.60;99.90;;;;;;5024261;28;20061;-79
2022/03/06 08:48:50;;;;;;;49.60;45.42;;;2.90;99.90;;;;;;5024553;28;20094;-79
2022/03/06 08:51:18;;;;;;;50.95;46.50;;;3.00;99.90;;;;;;5024230;28;20526;-79
2022/03/06 08:53:44;;;;;;;51.10;47.13;;;2.80;99.90;;;;;;5008437;28;20259;-79
2022/03/06 08:56:11;;;;;;;53.20;48.38;;;3.00;99.90;;;;;;5007746;28;20519;-79
2022/03/06 08:58:38;;;;;;;50.92;46.50;;;3.20;99.90;;;;;;5024342;28;20077;-79
2022/03/06 09:01:05;;;;;;;45.70;41.92;;;3.20;99.90;;;;;;5022882;28;20087;-79
2022/03/06 09:03:32;;;;;;;49.13;45.03;;;3.00;99.90;;;;;;5028387;28;20424;-79
2022/03/06 09:05:59;;;;;;;47.13;42.88;;;2.90;99.90;;;;;;5026157;28;20041;-79
2022/03/06 09:08:26;;;;;;;47.13;42.90;;;2.80;99.90;;;;;;5026550;28;20056;-79
2022/03/06 09:10:52;;;;;;;49.97;45.65;;;2.80;99.90;;;;;;5024153;28;20041;-80
2022/03/06 09:13:19;;;;;;;45.60;41.72;;;2.90;99.90;;;;;;5025147;28;20056;-79
2022/03/06 09:15:46;;;;;;;51.30;46.90;;;2.90;99.90;;;;;;5042385;28;20051;-79
2022/03/06 09:18:13;;;;;;;47.25;43.00;;;2.80;99.90;;;;;;5008910;28;20303;-79
2022/03/06 09:20:40;;;;;;;43.97;40.33;;;3.00;99.90;;;;;;5024821;28;20045;-79
2022/03/06 09:23:09;;;;;;;49.00;44.72;;;3.00;99.90;;;;;;5025717;28;20052;-79
2022/03/06 09:25:36;;;;;;;48.70;44.53;;;3.00;99.90;;;;;;5021836;28;20331;-79
2022/03/06 09:28:03;;;;;;;50.78;46.50;;;3.30;99.90;;;;;;5012080;28;20061;-79
2022/03/06 09:30:31;;;;;;;47.60;43.63;;;3.40;99.90;;;;;;5006859;28;20048;-79
2022/03/06 09:32:57;;;;;;;47.85;43.85;;;3.30;99.90;;;;;;5006916;28;20590;-79
2022/03/06 09:35:25;;;;;;;47.92;43.90;;;3.00;99.90;;;;;;5013078;28;20057;-79
2022/03/06 09:37:52;;;;;;;48.75;44.65;;;3.10;99.90;;;;;;5003695;28;20097;-79
2022/03/06 09:40:19;;;;;;;49.13;45.17;;;3.30;99.90;;;;;;4994971;28;20449;-80
2022/03/06 09:42:46;;;;;;;46.45;42.45;;;3.40;99.90;;;;;;5038098;28;20086;-79
2022/03/06 09:45:14;;;;;;;45.95;42.25;;;3.30;99.90;;;;;;5007584;28;20618;-79
2022/03/06 09:47:42;;;;;;;46.38;42.50;;;3.40;99.90;;;;;;5022718;28;20159;-79
2022/03/06 09:50:10;;;;;;;45.35;41.67;;;3.60;99.90;;;;;;5006738;28;20053;-80
2022/03/06 09:52:37;;;;;;;45.38;41.83;;;3.50;99.90;;;;;;5025568;28;20056;-79
2022/03/06 09:55:06;;;;;;;46.35;42.42;;;3.50;99.90;;;;;;5026744;28;20071;-79
2022/03/06 09:57:33;;;;;;;46.03;42.28;;;3.40;99.90;;;;;;5025972;28;20072;-79
2022/03/06 09:59:59;;;;;;;44.75;41.42;;;3.50;99.90;;;;;;5025933;28;20037;-79
2022/03/06 10:02:26;;;;;;;43.60;40.15;;;3.40;99.90;;;;;;5014478;28;20103;-79
2022/03/06 10:04:53;;;;;;;42.85;39.55;;;3.60;99.90;;;;;;5043280;28;20058;-78
2022/03/06 10:07:20;;;;;;;42.78;39.08;;;3.60;99.90;;;;;;5043655;28;20131;-79
2022/03/06 10:09:47;;;;;;;41.88;38.63;;;3.70;99.90;;;;;;5026265;28;20076;-78
2022/03/06 10:12:27;;;;;;;41.28;38.17;;;3.50;99.90;;;;;;5004589;28;20165;-79
2022/03/06 10:14:57;;;;;;;43.42;39.97;;;3.50;99.90;;;;;;5021929;28;20053;-79
2022/03/06 10:17:26;;;;;;;41.35;38.00;;;3.40;99.90;;;;;;5002590;28;20049;-78
2022/03/06 10:20:09;;;;;;;43.35;40.20;;;3.50;99.90;;;;;;5003232;28;20137;-79
2022/03/06 10:22:41;;;;;;;40.50;37.35;;;3.20;99.90;;;;;;5004259;28;20048;-79
2022/03/06 10:25:09;;;;;;;42.20;39.03;;;3.30;99.90;;;;;;5036843;28;20045;-79
2022/03/06 10:27:51;;;;;;;40.95;38.08;;;3.20;99.90;;;;;;5038648;28;20394;-79
2022/03/06 10:30:30;;;;;;;37.15;34.40;;;3.30;99.90;;;;;;5038589;28;20134;-79
2022/03/06 10:32:59;;;;;;;35.95;33.40;;;3.40;99.90;;;;;;5011056;28;20072;-79
2022/03/06 10:35:38;;;;;;;37.88;34.88;;;3.70;99.90;;;;;;5006508;28;20131;-79
2022/03/06 10:38:29;;;;;;;39.45;35.97;;;3.90;99.90;;;;;;5009579;28;20051;-79
2022/03/06 10:40:59;;;;;;;41.38;37.85;;;4.10;99.90;;;;;;5026708;28;20254;-80
2022/03/06 10:43:32;;;;;;;40.78;37.17;;;3.80;99.90;;;;;;5026423;28;20132;-79
2022/03/06 10:46:12;;;;;;;39.17;35.70;;;3.70;99.90;;;;;;5023935;28;20049;-79
2022/03/06 10:48:41;;;;;;;41.85;38.25;;;3.60;99.90;;;;;;5058656;28;20057;-78
2022/03/06 10:51:11;;;;;;;41.20;37.65;;;3.10;99.90;;;;;;5009049;28;20056;-79
2022/03/06 10:53:39;;;;;;;41.13;37.28;;;3.30;99.90;;;;;;5026897;28;20052;-79
2022/03/06 10:56:09;;;;;;;39.95;36.53;;;3.70;99.90;;;;;;5008439;28;20052;-79
2022/03/06 10:58:38;;;;;;;41.42;37.65;;;3.80;99.90;;;;;;5027064;28;20424;-80
2022/03/06 11:01:24;;;;;;;41.28;37.40;;;3.70;99.90;;;;;;5020708;28;20299;-79
2022/03/06 11:03:52;;;;;;;41.65;37.85;;;3.50;99.90;;;;;;5013232;28;20048;-79
2022/03/06 11:06:20;;;;;;;42.15;38.30;;;3.20;99.90;;;;;;5024896;28;20565;-78
2022/03/06 11:08:49;;;;;;;42.83;39.08;;;3.10;99.90;;;;;;5025467;28;20057;-79
2022/03/06 11:11:20;;;;;;;41.80;38.13;;;3.10;99.90;;;;;;5022263;28;20057;-79
2022/03/06 11:13:48;;;;;;;44.28;39.67;;;3.00;99.90;;;;;;5026821;28;20049;-79
2022/03/06 11:16:15;;;;;;;40.53;36.83;;;2.90;99.90;;;;;;5042140;28;20053;-79
2022/03/06 11:18:43;;;;;;;40.95;37.15;;;2.90;99.90;;;;;;5030022;28;20556;-79
2022/03/06 11:21:12;;;;;;;42.65;38.63;;;3.00;99.90;;;;;;5022517;28;20065;-78
2022/03/06 11:23:44;;;;;;;40.78;36.85;;;3.00;99.90;;;;;;5058859;28;20061;-79
2022/03/06 11:26:14;;;;;;;37.75;34.47;;;3.10;99.90;;;;;;5024694;28;20049;-79
2022/03/06 11:29:02;;;;;;;39.90;36.28;;;3.10;99.90;;;;;;5043262;28;20504;-78
2022/03/06 11:31:52;;;;;;;37.03;33.90;;;2.90;99.90;;;;;;5038644;28;20468;-78
2022/03/06 11:34:22;;;;;;;38.13;34.97;;;3.20;99.90;;;;;;5030745;28;20103;-79
2022/03/06 11:36:50;;;;;;;40.15;36.38;;;3.20;99.90;;;;;;5010031;28;20049;-79
2022/03/06 11:39:29;;;;;;;38.67;35.63;;;2.90;99.90;;;;;;5008394;28;20051;-78
2022/03/06 11:42:01;;;;;;;34.92;31.63;;;3.10;99.90;;;;;;5020179;28;20049;-79
2022/03/06 11:44:47;;;;;;;35.60;32.50;;;3.00;99.90;;;;;;5040837;28;20052;-78
2022/03/06 11:47:17;;;;;;;38.15;34.85;;;3.10;99.90;;;;;;5024599;28;20056;-79
2022/03/06 11:49:55;;;;;;;37.88;34.80;;;3.10;99.90;;;;;;5007922;28;20063;-79
2022/03/06 11:52:33;;;;;;;33.40;30.70;;;3.20;99.90;;;;;;5040027;28;20049;-79
2022/03/06 11:55:01;;;;;;;38.10;35.13;;;2.80;99.90;;;;;;5026087;28;20049;-79
2022/03/06 11:57:43;;;;;;;37.80;34.45;;;2.70;99.90;;;;;;5042798;28;20055;-79
2022/03/06 12:00:20;;;;;;;35.55;32.55;;;3.00;99.90;;;;;;5005570;28;20384;-79
2022/03/06 12:02:50;;;;;;;34.08;31.17;;;3.20;99.90;;;;;;5017599;28;20544;-79
2022/03/06 12:05:20;;;;;;;34.72;32.10;;;3.40;99.90;;;;;;5007553;28;20160;-79
2022/03/06 12:07:48;;;;;;;33.90;31.15;;;3.40;99.90;;;;;;5006897;28;20067;-80
2022/03/06 12:10:17;;;;;;;34.42;31.73;;;3.40;99.90;;;;;;5057382;28;20053;-80
2022/03/06 12:12:57;;;;;;;34.40;31.70;;;3.50;99.90;;;;;;5024766;28;20117;-79
2022/03/06 12:15:27;;;;;;;35.25;32.55;;;3.30;99.90;;;;;;5025429;28;20067;-79
2022/03/06 12:18:03;;;;;;;34.25;31.75;;;3.00;99.90;;;;;;5006978;28;20060;-79
2022/03/06 12:20:40;;;;;;;36.53;33.63;;;3.00;99.90;;;;;;5024637;28;20159;-80
2022/03/06 12:23:21;;;;;;;36.03;33.53;;;3.00;99.90;;;;;;5024090;28;20049;-79
2022/03/06 12:25:56;;;;;;;38.45;35.60;;;3.00;99.90;;;;;;5030550;28;20041;-79
2022/03/06 12:28:31;;;;;;;38.55;35.75;;;2.90;99.90;;;;;;5041075;28;20555;-79
2022/03/06 12:31:34;;;;;;;35.95;33.33;;;3.00;99.90;;;;;;5029222;28;20051;-79
2022/03/06 12:34:38;;;;;;;34.67;31.90;;;3.00;99.90;;;;;;5019178;28;20507;-79
2022/03/06 12:37:06;;;;;;;36.55;33.63;;;2.60;99.90;;;;;;5007531;28;20172;-79
2022/03/06 12:39:36;;;;;;;35.63;32.72;;;2.50;99.90;;;;;;5007623;28;20085;-80